sensor_id;sensor_type;location;lat;lon;timestamp;temperature;humidity
3628;DHT22;1830;49.000;12.074;2023-07-16T00:00:39;23.90;99.90
3628;DHT22;1830;49.000;12.074;2023-07-16T00:03:06;23.80;99.90
3628;DHT22;1830;49.000;12.074;2023-07-16T00:05:33;23.80;99.90
3628;DHT22;1830;49.000;12.074;2023-07-16T00:07:59;23.70;99.90
3628;DHT22;1830;49.000;12.074;2023-07-16T00:10:27;23.80;99.90
3628;DHT22;1830;49.000;12.074;2023-07-16T00:12:54;23.70;99.90
3628;DHT22;1830;49.000;12.074;2023-07-16T00:15:22;23.60;99.90
3628;DHT22;1830;49.000;12.074;2023-07-16T00:17:48;23.60;99.90
3628;DHT22;1830;49.000;12.074;2023-07-16T00:20:15;23.70;99.90
3628;DHT22;1830;49.000;12.074;2023-07-16T00:22:42;23.80;99.90
3628;DHT22;1830;49.000;12.074;2023-07-16T00:25:09;23.60;99.90
3628;DHT22;1830;49.000;12.074;2023-07-16T00:27:37;23.60;99.90
3628;DHT22;1830;49.000;12.074;2023-07-16T00:30:05;23.50;99.90
3628;DHT22;1830;49.000;12.074;2023-07-16T00:32:32;23.50;99.90
3628;DHT22;1830;49.000;12.074;2023-07-16T00:34:58;23.50;99.90
3628;DHT22;1830;49.000;12.074;2023-07-16T00:37:25;23.40;99.90
3628;DHT22;1830;49.000;12.074;2023-07-16T00:39:52;23.50;99.90
3628;DHT22;1830;49.000;12.074;2023-07-16T00:42:19;23.30;99.90
3628;DHT22;1830;49.000;12.074;2023-07-16T00:44:47;23.20;99.90
3628;DHT22;1830;49.000;12.074;2023-07-16T00:47:14;23.20;99.90
3628;DHT22;1830;49.000;12.074;2023-07-16T00:49:40;22.90;99.90
3628;DHT22;1830;49.000;12.074;2023-07-16T00:52:08;22.80;99.90
3628;DHT22;1830;49.000;12.074;2023-07-16T00:54:38;22.80;99.90
3628;DHT22;1830;49.000;12.074;2023-07-16T00:57:05;22.80;99.90
3628;DHT22;1830;49.000;12.074;2023-07-16T00:59:32;22.80;99.90
3628;DHT22;1830;49.000;12.074;2023-07-16T01:02:00;22.60;99.90
3628;DHT22;1830;49.000;12.074;2023-07-16T01:04:27;22.60;99.90
3628;DHT22;1830;49.000;12.074;2023-07-16T01:06:56;22.50;99.90
3628;DHT22;1830;49.000;12.074;2023-07-16T01:09:24;22.40;99.90
3628;DHT22;1830;49.000;12.074;2023-07-16T01:11:51;22.30;99.90
3628;DHT22;1830;49.000;12.074;2023-07-16T01:14:20;22.30;99.90
3628;DHT22;1830;49.000;12.074;2023-07-16T01:16:48;22.20;99.90
3628;DHT22;1830;49.000;12.074;2023-07-16T01:19:16;22.20;99.90
3628;DHT22;1830;49.000;12.074;2023-07-16T01:21:46;22.20;99.90
3628;DHT22;1830;49.000;12.074;2023-07-16T01:24:42;22.20;99.90
3628;DHT22;1830;49.000;12.074;2023-07-16T01:27:27;22.10;99.90
3628;DHT22;1830;49.000;12.074;2023-07-16T01:29:59;22.10;99.90
3628;DHT22;1830;49.000;12.074;2023-07-16T01:32:29;22.00;99.90
3628;DHT22;1830;49.000;12.074;2023-07-16T01:34:57;21.90;99.90
3628;DHT22;1830;49.000;12.074;2023-07-16T01:37:24;21.90;99.90
3628;DHT22;1830;49.000;12.074;2023-07-16T01:39:51;21.90;99.90
3628;DHT22;1830;49.000;12.074;2023-07-16T01:42:18;21.80;99.90
3628;DHT22;1830;49.000;12.074;2023-07-16T01:44:45;21.70;99.90
3628;DHT22;1830;49.000;12.074;2023-07-16T01:47:17;21.60;99.90
3628;DHT22;1830;49.000;12.074;2023-07-16T01:49:46;21.60;99.90
3628;DHT22;1830;49.000;12.074;2023-07-16T01:52:12;21.50;99.90
3628;DHT22;1830;49.000;12.074;2023-07-16T01:54:39;21.50;99.90
3628;DHT22;1830;49.000;12.074;2023-07-16T01:57:06;21.50;99.90
3628;DHT22;1830;49.000;12.074;2023-07-16T01:59:33;21.40;99.90
3628;DHT22;1830;49.000;12.074;2023-07-16T02:02:00;21.40;99.90
3628;DHT22;1830;49.000;12.074;2023-07-16T02:04:28;21.40;99.90
3628;DHT22;1830;49.000;12.074;2023-07-16T02:06:54;21.30;99.90
3628;DHT22;1830;49.000;12.074;2023-07-16T02:09:21;21.30;99.90
3628;DHT22;1830;49.000;12.074;2023-07-16T02:11:48;21.30;99.90
3628;DHT22;1830;49.000;12.074;2023-07-16T02:14:15;21.20;99.90
3628;DHT22;1830;49.000;12.074;2023-07-16T02:16:42;21.20;99.90
3628;DHT22;1830;49.000;12.074;2023-07-16T02:19:08;21.20;99.90
3628;DHT22;1830;49.000;12.074;2023-07-16T02:21:37;21.20;99.90
3628;DHT22;1830;49.000;12.074;2023-07-16T02:24:04;21.10;99.90
3628;DHT22;1830;49.000;12.074;2023-07-16T02:26:31;21.10;99.90
3628;DHT22;1830;49.000;12.074;2023-07-16T02:28:57;21.00;99.90
3628;DHT22;1830;49.000;12.074;2023-07-16T02:31:25;21.00;99.90
3628;DHT22;1830;49.000;12.074;2023-07-16T02:33:51;21.00;99.90
3628;DHT22;1830;49.000;12.074;2023-07-16T02:36:18;21.00;99.90
3628;DHT22;1830;49.000;12.074;2023-07-16T02:38:46;21.00;99.90
3628;DHT22;1830;49.000;12.074;2023-07-16T02:41:13;21.00;99.90
3628;DHT22;1830;49.000;12.074;2023-07-16T02:43:40;20.90;99.90
3628;DHT22;1830;49.000;12.074;2023-07-16T02:46:06;20.90;99.90
3628;DHT22;1830;49.000;12.074;2023-07-16T02:48:33;20.90;99.90
3628;DHT22;1830;49.000;12.074;2023-07-16T02:51:00;20.90;99.90
3628;DHT22;1830;49.000;12.074;2023-07-16T02:53:27;20.90;99.90
3628;DHT22;1830;49.000;12.074;2023-07-16T02:55:55;20.90;99.90
3628;DHT22;1830;49.000;12.074;2023-07-16T02:58:22;20.90;99.90
3628;DHT22;1830;49.000;12.074;2023-07-16T03:00:48;20.90;99.90
3628;DHT22;1830;49.000;12.074;2023-07-16T03:03:15;20.90;99.90
3628;DHT22;1830;49.000;12.074;2023-07-16T03:05:42;20.90;99.90
3628;DHT22;1830;49.000;12.074;2023-07-16T03:08:09;20.90;99.90
3628;DHT22;1830;49.000;12.074;2023-07-16T03:10:35;20.90;99.90
3628;DHT22;1830;49.000;12.074;2023-07-16T03:13:03;20.90;99.90
3628;DHT22;1830;49.000;12.074;2023-07-16T03:15:30;20.80;99.90
3628;DHT22;1830;49.000;12.074;2023-07-16T03:17:57;20.90;99.90
3628;DHT22;1830;49.000;12.074;2023-07-16T03:20:24;20.90;99.90
3628;DHT22;1830;49.000;12.074;2023-07-16T03:22:50;20.80;99.90
3628;DHT22;1830;49.000;12.074;2023-07-16T03:25:17;20.80;99.90
3628;DHT22;1830;49.000;12.074;2023-07-16T03:27:44;20.80;99.90
3628;DHT22;1830;49.000;12.074;2023-07-16T03:30:12;20.70;99.90
3628;DHT22;1830;49.000;12.074;2023-07-16T03:32:39;20.60;99.90
3628;DHT22;1830;49.000;12.074;2023-07-16T03:35:06;20.60;99.90
3628;DHT22;1830;49.000;12.074;2023-07-16T03:37:33;20.60;99.90
3628;DHT22;1830;49.000;12.074;2023-07-16T03:40:12;20.50;99.90
3628;DHT22;1830;49.000;12.074;2023-07-16T03:42:39;20.50;99.90
3628;DHT22;1830;49.000;12.074;2023-07-16T03:45:07;20.50;99.90
3628;DHT22;1830;49.000;12.074;2023-07-16T03:47:36;20.40;99.90
3628;DHT22;1830;49.000;12.074;2023-07-16T03:50:03;20.40;99.90
3628;DHT22;1830;49.000;12.074;2023-07-16T03:52:30;20.40;99.90
3628;DHT22;1830;49.000;12.074;2023-07-16T03:54:56;20.40;99.90
3628;DHT22;1830;49.000;12.074;2023-07-16T03:57:23;20.40;99.90
3628;DHT22;1830;49.000;12.074;2023-07-16T03:59:50;20.40;99.90
3628;DHT22;1830;49.000;12.074;2023-07-16T04:02:17;20.50;99.90
3628;DHT22;1830;49.000;12.074;2023-07-16T04:04:45;20.50;99.90
3628;DHT22;1830;49.000;12.074;2023-07-16T04:07:12;20.50;99.90
3628;DHT22;1830;49.000;12.074;2023-07-16T04:09:39;20.40;99.90
3628;DHT22;1830;49.000;12.074;2023-07-16T04:12:06;20.40;99.90
3628;DHT22;1830;49.000;12.074;2023-07-16T04:14:33;20.50;99.90
3628;DHT22;1830;49.000;12.074;2023-07-16T04:17:00;20.50;99.90
3628;DHT22;1830;49.000;12.074;2023-07-16T04:19:27;20.50;99.90
3628;DHT22;1830;49.000;12.074;2023-07-16T04:21:56;20.50;99.90
3628;DHT22;1830;49.000;12.074;2023-07-16T04:24:22;20.50;99.90
3628;DHT22;1830;49.000;12.074;2023-07-16T04:26:52;20.50;99.90
3628;DHT22;1830;49.000;12.074;2023-07-16T04:29:19;20.40;99.90
3628;DHT22;1830;49.000;12.074;2023-07-16T04:31:48;20.40;99.90
3628;DHT22;1830;49.000;12.074;2023-07-16T04:34:16;20.40;99.90
3628;DHT22;1830;49.000;12.074;2023-07-16T04:36:44;20.40;99.90
3628;DHT22;1830;49.000;12.074;2023-07-16T04:39:14;20.40;99.90
3628;DHT22;1830;49.000;12.074;2023-07-16T04:41:41;20.50;99.90
3628;DHT22;1830;49.000;12.074;2023-07-16T04:44:08;20.40;99.90
3628;DHT22;1830;49.000;12.074;2023-07-16T04:46:35;20.40;99.90
3628;DHT22;1830;49.000;12.074;2023-07-16T04:49:02;20.40;99.90
3628;DHT22;1830;49.000;12.074;2023-07-16T04:51:29;20.40;99.90
3628;DHT22;1830;49.000;12.074;2023-07-16T04:53:56;20.40;99.90
3628;DHT22;1830;49.000;12.074;2023-07-16T04:56:24;20.30;99.90
3628;DHT22;1830;49.000;12.074;2023-07-16T04:58:51;20.30;99.90
3628;DHT22;1830;49.000;12.074;2023-07-16T05:01:17;20.30;99.90
3628;DHT22;1830;49.000;12.074;2023-07-16T05:03:46;20.30;99.90
3628;DHT22;1830;49.000;12.074;2023-07-16T05:06:12;20.30;99.90
3628;DHT22;1830;49.000;12.074;2023-07-16T05:08:39;20.20;99.90
3628;DHT22;1830;49.000;12.074;2023-07-16T05:11:06;20.20;99.90
3628;DHT22;1830;49.000;12.074;2023-07-16T05:13:34;20.10;99.90
3628;DHT22;1830;49.000;12.074;2023-07-16T05:16:01;20.00;99.90
3628;DHT22;1830;49.000;12.074;2023-07-16T05:18:28;20.00;99.90
3628;DHT22;1830;49.000;12.074;2023-07-16T05:20:54;20.00;99.90
3628;DHT22;1830;49.000;12.074;2023-07-16T05:23:21;20.00;99.90
3628;DHT22;1830;49.000;12.074;2023-07-16T05:25:49;20.00;99.90
3628;DHT22;1830;49.000;12.074;2023-07-16T05:28:16;19.90;99.90
3628;DHT22;1830;49.000;12.074;2023-07-16T05:30:44;19.80;99.90
3628;DHT22;1830;49.000;12.074;2023-07-16T05:33:11;19.70;99.90
3628;DHT22;1830;49.000;12.074;2023-07-16T05:35:38;19.70;99.90
3628;DHT22;1830;49.000;12.074;2023-07-16T05:38:05;19.80;99.90
3628;DHT22;1830;49.000;12.074;2023-07-16T05:40:32;19.80;99.90
3628;DHT22;1830;49.000;12.074;2023-07-16T05:42:59;19.80;99.90
3628;DHT22;1830;49.000;12.074;2023-07-16T05:45:26;19.70;99.90
3628;DHT22;1830;49.000;12.074;2023-07-16T05:47:54;19.70;99.90
3628;DHT22;1830;49.000;12.074;2023-07-16T05:50:21;19.60;99.90
3628;DHT22;1830;49.000;12.074;2023-07-16T05:52:48;19.60;99.90
3628;DHT22;1830;49.000;12.074;2023-07-16T05:55:14;19.70;99.90
3628;DHT22;1830;49.000;12.074;2023-07-16T05:57:41;19.60;99.90
3628;DHT22;1830;49.000;12.074;2023-07-16T06:00:09;19.60;99.90
3628;DHT22;1830;49.000;12.074;2023-07-16T06:02:36;19.60;99.90
3628;DHT22;1830;49.000;12.074;2023-07-16T06:05:05;19.60;99.90
3628;DHT22;1830;49.000;12.074;2023-07-16T06:07:32;19.60;99.90
3628;DHT22;1830;49.000;12.074;2023-07-16T06:09:59;19.50;99.90
3628;DHT22;1830;49.000;12.074;2023-07-16T06:12:25;19.50;99.90
3628;DHT22;1830;49.000;12.074;2023-07-16T06:14:53;19.60;99.90
3628;DHT22;1830;49.000;12.074;2023-07-16T06:17:20;19.50;99.90
3628;DHT22;1830;49.000;12.074;2023-07-16T06:19:47;19.50;99.90
3628;DHT22;1830;49.000;12.074;2023-07-16T06:22:17;19.50;99.90
3628;DHT22;1830;49.000;12.074;2023-07-16T06:24:43;19.60;99.90
3628;DHT22;1830;49.000;12.074;2023-07-16T06:27:10;19.50;99.90
3628;DHT22;1830;49.000;12.074;2023-07-16T06:29:37;19.60;99.90
3628;DHT22;1830;49.000;12.074;2023-07-16T06:32:04;19.60;99.90
3628;DHT22;1830;49.000;12.074;2023-07-16T06:34:31;19.60;99.90
3628;DHT22;1830;49.000;12.074;2023-07-16T06:36:58;19.60;99.90
3628;DHT22;1830;49.000;12.074;2023-07-16T06:39:26;19.60;99.90
3628;DHT22;1830;49.000;12.074;2023-07-16T06:41:53;19.50;99.90
3628;DHT22;1830;49.000;12.074;2023-07-16T06:44:20;19.60;99.90
3628;DHT22;1830;49.000;12.074;2023-07-16T06:46:48;19.60;99.90
3628;DHT22;1830;49.000;12.074;2023-07-16T06:49:14;19.60;99.90
3628;DHT22;1830;49.000;12.074;2023-07-16T06:51:41;19.50;99.90
3628;DHT22;1830;49.000;12.074;2023-07-16T06:54:08;19.50;99.90
3628;DHT22;1830;49.000;12.074;2023-07-16T06:56:36;19.50;99.90
3628;DHT22;1830;49.000;12.074;2023-07-16T06:59:03;19.50;99.90
3628;DHT22;1830;49.000;12.074;2023-07-16T07:01:29;19.50;99.90
3628;DHT22;1830;49.000;12.074;2023-07-16T07:03:56;19.50;99.90
3628;DHT22;1830;49.000;12.074;2023-07-16T07:06:23;19.50;99.90
3628;DHT22;1830;49.000;12.074;2023-07-16T07:08:50;19.40;99.90
3628;DHT22;1830;49.000;12.074;2023-07-16T07:11:17;19.40;99.90
3628;DHT22;1830;49.000;12.074;2023-07-16T07:13:45;19.40;99.90
3628;DHT22;1830;49.000;12.074;2023-07-16T07:16:11;19.40;99.90
3628;DHT22;1830;49.000;12.074;2023-07-16T07:18:38;19.40;99.90
3628;DHT22;1830;49.000;12.074;2023-07-16T07:21:05;19.50;99.90
3628;DHT22;1830;49.000;12.074;2023-07-16T07:23:32;19.40;99.90
3628;DHT22;1830;49.000;12.074;2023-07-16T07:25:58;19.40;99.90
3628;DHT22;1830;49.000;12.074;2023-07-16T07:28:25;19.50;99.90
3628;DHT22;1830;49.000;12.074;2023-07-16T07:30:53;19.50;99.90
3628;DHT22;1830;49.000;12.074;2023-07-16T07:33:20;19.50;99.90
3628;DHT22;1830;49.000;12.074;2023-07-16T07:35:47;19.70;99.90
3628;DHT22;1830;49.000;12.074;2023-07-16T07:38:13;19.70;99.90
3628;DHT22;1830;49.000;12.074;2023-07-16T07:40:42;19.80;99.90
3628;DHT22;1830;49.000;12.074;2023-07-16T07:43:09;19.90;99.90
3628;DHT22;1830;49.000;12.074;2023-07-16T07:45:36;19.90;99.90
3628;DHT22;1830;49.000;12.074;2023-07-16T07:48:04;20.00;99.90
3628;DHT22;1830;49.000;12.074;2023-07-16T07:50:31;20.00;99.90
3628;DHT22;1830;49.000;12.074;2023-07-16T07:52:58;20.10;99.90
3628;DHT22;1830;49.000;12.074;2023-07-16T07:55:25;20.10;99.90
3628;DHT22;1830;49.000;12.074;2023-07-16T07:57:51;20.20;99.90
3628;DHT22;1830;49.000;12.074;2023-07-16T08:00:19;20.20;99.90
3628;DHT22;1830;49.000;12.074;2023-07-16T08:02:46;20.00;99.90
3628;DHT22;1830;49.000;12.074;2023-07-16T08:05:14;20.00;99.90
3628;DHT22;1830;49.000;12.074;2023-07-16T08:07:41;20.10;99.90
3628;DHT22;1830;49.000;12.074;2023-07-16T08:10:08;19.90;99.90
3628;DHT22;1830;49.000;12.074;2023-07-16T08:12:35;19.90;99.90
3628;DHT22;1830;49.000;12.074;2023-07-16T08:15:02;19.90;99.90
3628;DHT22;1830;49.000;12.074;2023-07-16T08:17:29;19.90;99.90
3628;DHT22;1830;49.000;12.074;2023-07-16T08:19:56;20.00;99.90
3628;DHT22;1830;49.000;12.074;2023-07-16T08:22:24;20.00;99.90
3628;DHT22;1830;49.000;12.074;2023-07-16T08:24:51;20.00;99.90
3628;DHT22;1830;49.000;12.074;2023-07-16T08:27:18;19.90;99.90
3628;DHT22;1830;49.000;12.074;2023-07-16T08:29:45;19.60;99.90
3628;DHT22;1830;49.000;12.074;2023-07-16T08:32:12;19.60;99.90
3628;DHT22;1830;49.000;12.074;2023-07-16T08:34:38;19.60;99.90
3628;DHT22;1830;49.000;12.074;2023-07-16T08:37:05;19.60;99.90
3628;DHT22;1830;49.000;12.074;2023-07-16T08:39:34;19.60;99.90
3628;DHT22;1830;49.000;12.074;2023-07-16T08:42:01;19.70;99.90
3628;DHT22;1830;49.000;12.074;2023-07-16T08:44:29;19.60;99.90
3628;DHT22;1830;49.000;12.074;2023-07-16T08:46:56;19.50;99.90
3628;DHT22;1830;49.000;12.074;2023-07-16T08:49:23;19.60;99.90
3628;DHT22;1830;49.000;12.074;2023-07-16T08:51:50;19.60;99.90
3628;DHT22;1830;49.000;12.074;2023-07-16T08:54:17;19.50;99.90
3628;DHT22;1830;49.000;12.074;2023-07-16T08:56:47;19.50;99.90
3628;DHT22;1830;49.000;12.074;2023-07-16T08:59:15;19.40;99.90
3628;DHT22;1830;49.000;12.074;2023-07-16T09:01:42;19.40;99.90
3628;DHT22;1830;49.000;12.074;2023-07-16T09:04:09;19.50;99.90
3628;DHT22;1830;49.000;12.074;2023-07-16T09:06:36;19.50;99.90
3628;DHT22;1830;49.000;12.074;2023-07-16T09:09:02;19.50;99.90
3628;DHT22;1830;49.000;12.074;2023-07-16T09:11:29;19.60;99.90
3628;DHT22;1830;49.000;12.074;2023-07-16T09:13:57;19.70;99.90
3628;DHT22;1830;49.000;12.074;2023-07-16T09:16:32;19.70;99.90
3628;DHT22;1830;49.000;12.074;2023-07-16T09:19:05;19.70;99.90
3628;DHT22;1830;49.000;12.074;2023-07-16T09:21:32;19.80;99.90
3628;DHT22;1830;49.000;12.074;2023-07-16T09:24:00;19.90;99.90
3628;DHT22;1830;49.000;12.074;2023-07-16T09:26:27;19.90;99.90
3628;DHT22;1830;49.000;12.074;2023-07-16T09:28:53;20.00;99.90
3628;DHT22;1830;49.000;12.074;2023-07-16T09:31:22;20.10;99.90
3628;DHT22;1830;49.000;12.074;2023-07-16T09:33:51;20.10;99.90
3628;DHT22;1830;49.000;12.074;2023-07-16T09:36:23;20.20;99.90
3628;DHT22;1830;49.000;12.074;2023-07-16T09:38:52;20.20;99.90
3628;DHT22;1830;49.000;12.074;2023-07-16T09:41:20;20.20;99.90
3628;DHT22;1830;49.000;12.074;2023-07-16T09:43:47;20.10;99.90
3628;DHT22;1830;49.000;12.074;2023-07-16T09:46:14;20.20;99.90
3628;DHT22;1830;49.000;12.074;2023-07-16T09:48:43;20.20;99.90
3628;DHT22;1830;49.000;12.074;2023-07-16T09:51:11;20.20;99.90
3628;DHT22;1830;49.000;12.074;2023-07-16T09:53:40;20.20;99.90
3628;DHT22;1830;49.000;12.074;2023-07-16T09:56:08;20.20;99.90
3628;DHT22;1830;49.000;12.074;2023-07-16T09:58:36;20.20;99.90
3628;DHT22;1830;49.000;12.074;2023-07-16T10:01:04;20.30;99.90
3628;DHT22;1830;49.000;12.074;2023-07-16T10:03:31;20.30;99.90
3628;DHT22;1830;49.000;12.074;2023-07-16T10:06:07;20.30;99.90
3628;DHT22;1830;49.000;12.074;2023-07-16T10:08:34;20.40;99.90
3628;DHT22;1830;49.000;12.074;2023-07-16T10:11:01;20.40;99.90
3628;DHT22;1830;49.000;12.074;2023-07-16T10:13:28;20.40;99.90
3628;DHT22;1830;49.000;12.074;2023-07-16T10:15:55;20.40;99.90
3628;DHT22;1830;49.000;12.074;2023-07-16T10:18:24;20.40;99.90
3628;DHT22;1830;49.000;12.074;2023-07-16T10:20:53;20.40;99.90
3628;DHT22;1830;49.000;12.074;2023-07-16T10:23:21;20.50;99.90
3628;DHT22;1830;49.000;12.074;2023-07-16T10:26:01;20.50;99.90
3628;DHT22;1830;49.000;12.074;2023-07-16T10:28:31;20.60;99.90
3628;DHT22;1830;49.000;12.074;2023-07-16T10:30:58;20.60;99.90
3628;DHT22;1830;49.000;12.074;2023-07-16T10:33:25;20.70;99.90
3628;DHT22;1830;49.000;12.074;2023-07-16T10:35:51;20.90;99.90
3628;DHT22;1830;49.000;12.074;2023-07-16T10:38:19;20.90;99.90
3628;DHT22;1830;49.000;12.074;2023-07-16T10:40:47;20.90;99.90
3628;DHT22;1830;49.000;12.074;2023-07-16T10:43:14;21.10;99.90
3628;DHT22;1830;49.000;12.074;2023-07-16T10:45:41;21.20;99.90
3628;DHT22;1830;49.000;12.074;2023-07-16T10:48:10;21.40;99.90
3628;DHT22;1830;49.000;12.074;2023-07-16T10:50:37;21.50;99.90
3628;DHT22;1830;49.000;12.074;2023-07-16T10:53:04;21.70;99.90
3628;DHT22;1830;49.000;12.074;2023-07-16T10:55:31;21.90;99.90
3628;DHT22;1830;49.000;12.074;2023-07-16T10:58:05;21.90;99.90
3628;DHT22;1830;49.000;12.074;2023-07-16T11:00:36;22.00;99.90
3628;DHT22;1830;49.000;12.074;2023-07-16T11:03:04;22.00;99.90
3628;DHT22;1830;49.000;12.074;2023-07-16T11:05:31;22.30;99.90
3628;DHT22;1830;49.000;12.074;2023-07-16T11:07:58;22.50;99.90
3628;DHT22;1830;49.000;12.074;2023-07-16T11:10:27;22.50;99.90
3628;DHT22;1830;49.000;12.074;2023-07-16T11:12:58;22.50;99.90
3628;DHT22;1830;49.000;12.074;2023-07-16T11:15:34;22.50;99.90
3628;DHT22;1830;49.000;12.074;2023-07-16T11:18:01;22.50;99.90
3628;DHT22;1830;49.000;12.074;2023-07-16T11:20:29;22.80;99.90
3628;DHT22;1830;49.000;12.074;2023-07-16T11:22:58;22.90;99.90
3628;DHT22;1830;49.000;12.074;2023-07-16T11:25:25;23.00;99.90
3628;DHT22;1830;49.000;12.074;2023-07-16T11:27:54;23.00;99.90
3628;DHT22;1830;49.000;12.074;2023-07-16T11:30:23;23.00;99.90
3628;DHT22;1830;49.000;12.074;2023-07-16T11:32:51;23.20;99.90
3628;DHT22;1830;49.000;12.074;2023-07-16T11:35:19;23.40;99.90
3628;DHT22;1830;49.000;12.074;2023-07-16T11:37:46;23.30;99.90
3628;DHT22;1830;49.000;12.074;2023-07-16T11:40:15;23.30;99.90
3628;DHT22;1830;49.000;12.074;2023-07-16T11:42:43;23.30;99.90
3628;DHT22;1830;49.000;12.074;2023-07-16T11:45:15;23.20;99.90
3628;DHT22;1830;49.000;12.074;2023-07-16T11:47:42;23.30;99.90
3628;DHT22;1830;49.000;12.074;2023-07-16T11:50:29;23.40;99.90
3628;DHT22;1830;49.000;12.074;2023-07-16T11:52:59;23.30;99.90
3628;DHT22;1830;49.000;12.074;2023-07-16T11:55:26;23.30;99.90
3628;DHT22;1830;49.000;12.074;2023-07-16T11:57:52;23.50;99.90
3628;DHT22;1830;49.000;12.074;2023-07-16T12:00:19;23.60;99.90
3628;DHT22;1830;49.000;12.074;2023-07-16T12:02:46;23.90;99.90
3628;DHT22;1830;49.000;12.074;2023-07-16T12:05:17;24.10;99.90
3628;DHT22;1830;49.000;12.074;2023-07-16T12:07:45;23.90;99.90
3628;DHT22;1830;49.000;12.074;2023-07-16T12:10:12;23.80;99.90
3628;DHT22;1830;49.000;12.074;2023-07-16T12:12:38;23.60;99.90
3628;DHT22;1830;49.000;12.074;2023-07-16T12:15:06;23.50;99.90
3628;DHT22;1830;49.000;12.074;2023-07-16T12:17:33;23.50;99.90
3628;DHT22;1830;49.000;12.074;2023-07-16T12:20:00;23.80;99.90
3628;DHT22;1830;49.000;12.074;2023-07-16T12:22:27;24.00;99.90
3628;DHT22;1830;49.000;12.074;2023-07-16T12:24:55;24.10;99.90
3628;DHT22;1830;49.000;12.074;2023-07-16T12:27:22;24.30;99.90
3628;DHT22;1830;49.000;12.074;2023-07-16T12:29:49;24.60;99.90
3628;DHT22;1830;49.000;12.074;2023-07-16T12:32:17;24.40;99.90
3628;DHT22;1830;49.000;12.074;2023-07-16T12:34:45;24.30;99.90
3628;DHT22;1830;49.000;12.074;2023-07-16T12:37:12;24.20;99.90
3628;DHT22;1830;49.000;12.074;2023-07-16T12:39:39;24.20;99.90
3628;DHT22;1830;49.000;12.074;2023-07-16T12:42:07;24.60;99.90
3628;DHT22;1830;49.000;12.074;2023-07-16T12:44:34;24.40;99.90
3628;DHT22;1830;49.000;12.074;2023-07-16T12:47:01;24.60;99.90
3628;DHT22;1830;49.000;12.074;2023-07-16T12:49:27;25.10;99.90
3628;DHT22;1830;49.000;12.074;2023-07-16T12:51:54;25.30;99.90
3628;DHT22;1830;49.000;12.074;2023-07-16T12:54:21;25.50;99.90
3628;DHT22;1830;49.000;12.074;2023-07-16T12:56:48;25.50;99.90
3628;DHT22;1830;49.000;12.074;2023-07-16T12:59:17;25.80;99.90
3628;DHT22;1830;49.000;12.074;2023-07-16T13:01:43;26.00;99.90
3628;DHT22;1830;49.000;12.074;2023-07-16T13:04:10;26.10;99.90
3628;DHT22;1830;49.000;12.074;2023-07-16T13:06:37;26.10;99.90
3628;DHT22;1830;49.000;12.074;2023-07-16T13:09:04;26.20;99.90
3628;DHT22;1830;49.000;12.074;2023-07-16T13:11:31;26.40;99.90
3628;DHT22;1830;49.000;12.074;2023-07-16T13:13:58;26.40;99.90
3628;DHT22;1830;49.000;12.074;2023-07-16T13:16:26;26.50;99.90
3628;DHT22;1830;49.000;12.074;2023-07-16T13:18:53;26.70;99.90
3628;DHT22;1830;49.000;12.074;2023-07-16T13:21:19;26.70;99.90
3628;DHT22;1830;49.000;12.074;2023-07-16T13:23:46;26.40;99.90
3628;DHT22;1830;49.000;12.074;2023-07-16T13:26:13;26.20;99.90
3628;DHT22;1830;49.000;12.074;2023-07-16T13:28:40;26.00;99.90
3628;DHT22;1830;49.000;12.074;2023-07-16T13:31:06;26.00;99.90
3628;DHT22;1830;49.000;12.074;2023-07-16T13:33:34;25.90;99.90
3628;DHT22;1830;49.000;12.074;2023-07-16T13:36:01;25.70;99.90
3628;DHT22;1830;49.000;12.074;2023-07-16T13:38:30;25.80;99.90
3628;DHT22;1830;49.000;12.074;2023-07-16T13:40:57;25.80;99.90
3628;DHT22;1830;49.000;12.074;2023-07-16T13:43:23;25.60;99.90
3628;DHT22;1830;49.000;12.074;2023-07-16T13:45:50;25.80;99.90
3628;DHT22;1830;49.000;12.074;2023-07-16T13:48:17;26.10;99.90
3628;DHT22;1830;49.000;12.074;2023-07-16T13:50:45;26.00;99.90
3628;DHT22;1830;49.000;12.074;2023-07-16T13:53:12;26.10;99.90
3628;DHT22;1830;49.000;12.074;2023-07-16T13:55:39;26.40;99.90
3628;DHT22;1830;49.000;12.074;2023-07-16T13:58:05;26.60;99.90
3628;DHT22;1830;49.000;12.074;2023-07-16T14:00:32;26.60;99.90
3628;DHT22;1830;49.000;12.074;2023-07-16T14:02:59;26.70;99.90
3628;DHT22;1830;49.000;12.074;2023-07-16T14:05:26;26.80;99.90
3628;DHT22;1830;49.000;12.074;2023-07-16T14:07:54;26.90;99.90
3628;DHT22;1830;49.000;12.074;2023-07-16T14:10:21;27.10;99.90
3628;DHT22;1830;49.000;12.074;2023-07-16T14:12:48;27.40;99.90
3628;DHT22;1830;49.000;12.074;2023-07-16T14:15:15;27.30;99.90
3628;DHT22;1830;49.000;12.074;2023-07-16T14:17:42;27.50;99.90
3628;DHT22;1830;49.000;12.074;2023-07-16T14:20:09;27.60;99.90
3628;DHT22;1830;49.000;12.074;2023-07-16T14:22:36;27.60;99.90
3628;DHT22;1830;49.000;12.074;2023-07-16T14:25:06;27.40;99.90
3628;DHT22;1830;49.000;12.074;2023-07-16T14:27:34;27.30;99.90
3628;DHT22;1830;49.000;12.074;2023-07-16T14:30:01;27.10;99.90
3628;DHT22;1830;49.000;12.074;2023-07-16T14:32:28;27.00;99.90
3628;DHT22;1830;49.000;12.074;2023-07-16T14:34:57;26.80;99.60
3628;DHT22;1830;49.000;12.074;2023-07-16T14:37:23;26.80;99.90
3628;DHT22;1830;49.000;12.074;2023-07-16T14:39:50;26.60;99.90
3628;DHT22;1830;49.000;12.074;2023-07-16T14:42:18;26.40;99.90
3628;DHT22;1830;49.000;12.074;2023-07-16T14:44:45;26.50;99.90
3628;DHT22;1830;49.000;12.074;2023-07-16T14:47:12;26.50;99.90
3628;DHT22;1830;49.000;12.074;2023-07-16T14:49:39;26.30;99.90
3628;DHT22;1830;49.000;12.074;2023-07-16T14:52:06;26.30;99.90
3628;DHT22;1830;49.000;12.074;2023-07-16T14:54:33;26.30;99.90
3628;DHT22;1830;49.000;12.074;2023-07-16T14:57:01;26.40;99.90
3628;DHT22;1830;49.000;12.074;2023-07-16T14:59:29;26.60;99.90
3628;DHT22;1830;49.000;12.074;2023-07-16T15:01:56;26.70;99.50
3628;DHT22;1830;49.000;12.074;2023-07-16T15:04:23;26.80;99.90
3628;DHT22;1830;49.000;12.074;2023-07-16T15:06:50;26.90;99.60
3628;DHT22;1830;49.000;12.074;2023-07-16T15:09:17;27.00;99.70
3628;DHT22;1830;49.000;12.074;2023-07-16T15:11:44;26.90;99.60
3628;DHT22;1830;49.000;12.074;2023-07-16T15:14:11;26.90;99.60
3628;DHT22;1830;49.000;12.074;2023-07-16T15:16:39;26.90;99.20
3628;DHT22;1830;49.000;12.074;2023-07-16T15:19:06;27.00;99.90
3628;DHT22;1830;49.000;12.074;2023-07-16T15:21:35;26.90;99.30
3628;DHT22;1830;49.000;12.074;2023-07-16T15:24:03;27.00;99.40
3628;DHT22;1830;49.000;12.074;2023-07-16T15:26:30;26.90;99.10
3628;DHT22;1830;49.000;12.074;2023-07-16T15:28:56;26.70;98.50
3628;DHT22;1830;49.000;12.074;2023-07-16T15:31:23;26.80;99.20
3628;DHT22;1830;49.000;12.074;2023-07-16T15:33:54;26.70;98.40
3628;DHT22;1830;49.000;12.074;2023-07-16T15:36:21;26.60;99.40
3628;DHT22;1830;49.000;12.074;2023-07-16T15:38:49;26.50;98.90
3628;DHT22;1830;49.000;12.074;2023-07-16T15:41:17;26.50;99.00
3628;DHT22;1830;49.000;12.074;2023-07-16T15:43:45;26.40;99.00
3628;DHT22;1830;49.000;12.074;2023-07-16T15:46:14;26.50;99.20